Date,TemperatureHighF,TemperatureAvgF,TemperatureLowF,DewpointHighF,DewpointAvgF,DewpointLowF,HumidityHigh,HumidityAvg,HumidityLow,PressureMaxIn,PressureMinIn,WindSpeedMaxMPH,WindSpeedAvgMPH,GustSpeedMaxMPH,PrecipitationSumIn
2013-1-4,35.0,30.2,29.0,25.0,24.3,23.0,82,79,65,30.39,30.37,6,2,9,0.00
2013-1-5,31.0,29.9,29.0,28.0,26.7,24.0,91,88,80,30.39,30.22,4,0,4,0.01
2013-1-6,38.0,30.8,25.0,30.0,26.8,22.0,92,85,71,30.22,30.07,6,1,11,0.03
2013-1-7,51.0,39.9,30.0,41.0,34.5,27.0,95,82,66,30.07,29.84,23,6,26,0.08
2013-1-8,50.0,46.1,43.0,42.0,38.4,35.0,85,74,68,30.10,29.85,16,4,21,0.01
2013-1-9,53.0,46.5,38.0,39.0,35.2,28.0,72,65,52,29.86,29.60,17,4,28,0.00
2013-1-10,44.0,37.1,33.0,28.0,23.8,16.0,70,59,46,30.00,29.83,12,3,15,0.00
2013-1-11,43.0,31.1,24.0,27.0,19.4,11.0,86,63,42,30.25,30.00,9,2,17,0.00
2013-1-12,40.0,25.0,16.0,23.0,17.6,12.0,91,75,45,30.37,30.24,5,1,8,0.00
2013-1-13,36.0,23.9,16.0,21.0,17.2,12.0,87,77,50,30.46,30.36,5,1,7,0.00
2013-1-14,44.0,28.6,20.0,27.0,21.8,16.0,87,77,45,30.45,30.30,4,0,6,0.00
2013-1-15,43.0,26.6,19.0,26.0,20.5,16.0,89,79,50,30.60,30.45,3,0,4,0.00
2013-1-16,31.0,26.2,18.0,25.0,21.7,15.0,88,83,76,30.61,30.55,3,0,4,0.00
2013-1-17,32.0,30.1,29.0,26.0,24.9,24.0,83,81,76,30.57,30.40,4,0,6,0.00
2013-1-18,32.0,29.3,27.0,27.0,25.0,24.0,89,83,77,30.40,30.28,4,0,9,0.00
2013-1-19,32.0,29.4,28.0,26.0,25.0,24.0,86,83,77,30.47,30.36,4,0,5,0.00
2013-1-20,31.0,29.2,28.0,25.0,24.4,24.0,84,81,76,30.55,30.44,2,0,4,0.00
2013-1-21,29.0,27.5,26.0,25.0,22.9,21.0,84,82,80,30.44,30.34,4,0,4,0.00
2013-1-22,28.0,25.9,25.0,22.0,20.2,19.0,85,79,71,30.35,30.20,3,1,7,0.00
2013-1-23,30.0,27.5,26.0,24.0,21.7,20.0,82,79,73,30.21,29.98,5,1,10,0.00
2013-1-24,37.0,29.7,22.0,28.0,24.6,19.0,91,81,63,30.26,30.11,6,1,10,0.02
2013-1-25,35.0,32.1,29.0,31.0,28.8,26.0,93,87,81,30.16,29.95,1,0,2,0.04
2013-1-26,37.0,34.3,32.0,35.0,32.4,30.0,96,93,87,30.00,29.92,2,0,3,0.07
2013-1-27,50.0,38.1,31.0,36.0,31.8,29.0,94,79,57,30.02,29.92,11,1,17,0.01
2013-1-28,43.0,39.5,32.0,35.0,32.2,28.0,90,75,67,29.96,29.88,21,6,23,0.00
2013-1-29,51.0,45.6,41.0,38.0,34.4,31.0,73,65,54,30.18,29.89,19,6,23,0.00
2013-1-30,54.0,47.6,44.0,41.0,37.7,35.0,74,68,60,30.23,30.15,17,10,27,0.00
2013-1-31,57.0,50.2,43.0,41.0,38.9,35.0,78,65,51,30.27,30.19,12,4,17,0.00
2013-2-1,62.0,44.3,32.0,39.0,33.9,29.0,91,69,36,30.42,30.21,10,1,12,0.00
2013-2-2,54.0,37.0,26.0,37.0,30.6,24.0,92,79,50,30.44,30.24,2,0,7,0.00
2013-2-3,38.0,32.8,26.0,37.0,31.2,25.0,97,94,90,30.24,30.13,2,0,6,0.00
2013-2-4,42.0,36.9,34.0,37.0,34.7,33.0,96,92,82,30.13,29.92,3,0,5,0.00
2013-2-5,55.0,43.1,32.0,39.0,35.2,30.0,95,75,53,29.93,29.83,15,4,19,0.01
2013-2-6,56.0,46.7,39.0,35.0,33.4,30.0,78,61,39,30.05,29.86,19,6,23,0.01
2013-2-7,49.0,40.4,30.0,34.0,31.4,25.0,85,71,50,30.04,29.84,15,2,16,0.00
2013-2-8,55.0,37.7,28.0,30.0,25.8,22.0,86,66,31,30.15,30.04,4,0,10,0.00
2013-2-9,52.0,36.4,25.0,32.0,26.0,21.0,86,68,36,30.17,30.06,11,2,12,0.00
2013-2-10,58.0,36.5,25.0,33.0,26.5,22.0,89,70,32,30.26,30.17,5,1,6,0.00
2013-2-11,56.0,35.8,24.0,35.0,27.8,22.0,92,75,44,30.22,30.16,5,0,5,0.00
2013-2-12,57.0,44.0,28.0,41.0,34.6,25.0,94,71,51,30.29,30.19,21,5,26,0.00
2013-2-13,56.0,48.5,38.0,39.0,36.4,27.0,72,63,48,30.36,30.18,23,7,26,0.00
2013-2-14,58.0,42.7,32.0,37.0,31.9,27.0,83,67,42,30.49,30.36,10,1,11,0.00
2013-2-15,60.0,40.7,27.0,37.0,31.4,24.0,92,72,41,30.50,30.22,3,0,5,0.00
2013-2-16,60.0,41.2,26.0,41.0,31.6,23.0,93,71,36,30.22,29.96,12,3,19,0.00
2013-2-17,55.0,43.7,33.0,31.0,26.7,23.0,71,52,30,30.13,30.04,12,6,17,0.00
2013-2-18,48.0,37.5,28.0,31.0,27.0,23.0,86,67,48,30.07,29.76,1,0,5,0.00
2013-2-19,54.0,41.0,31.0,33.0,28.9,27.0,84,63,40,29.86,29.72,4,0,6,0.00
2013-2-24,48.0,42.9,37.0,32.0,29.1,26.0,70,58,51,30.28,30.02,12,4,15,0.04
2013-2-25,53.0,43.4,36.0,36.0,30.0,23.0,77,61,32,30.18,29.92,26,9,28,0.02
2013-2-26,51.0,41.6,32.0,30.0,26.4,24.0,73,56,35,30.31,30.18,12,5,19,0.01
2013-2-27,60.0,47.8,34.0,36.0,30.9,25.0,72,53,35,30.27,30.17,10,2,17,0.00
2013-2-28,54.0,48.2,44.0,47.0,42.0,36.0,93,79,59,30.29,30.20,10,0,18,0.03
2013-3-1,64.0,56.7,50.0,47.0,44.0,41.0,78,63,43,30.33,30.23,18,6,23,0.01
2013-3-2,60.0,53.0,47.0,46.0,42.5,37.0,82,68,48,30.24,29.96,17,3,19,0.00
2013-3-3,60.0,46.8,37.0,39.0,20.3,13.0,67,37,18,30.20,30.01,16,4,17,0.00
2013-3-4,56.0,39.4,25.0,26.0,21.0,17.0,75,50,27,30.26,30.00,4,1,9,0.00
2013-3-5,50.0,39.1,30.0,37.0,28.1,20.0,88,65,41,30.00,29.77,10,1,14,0.02
2013-3-6,48.0,41.0,37.0,41.0,36.8,35.0,94,85,67,29.87,29.58,19,4,27,0.20
2013-3-7,58.0,46.2,32.0,36.0,29.9,22.0,78,56,27,30.02,29.86,16,5,21,0.02
2013-3-8,61.0,40.5,26.0,37.0,29.2,22.0,86,67,36,30.12,30.01,5,1,6,0.00
2013-3-9,62.0,44.5,28.0,36.0,29.5,25.0,90,60,28,30.36,30.12,6,0,8,0.00
2013-3-10,56.0,46.0,31.0,40.0,33.3,26.0,86,63,38,30.37,30.22,14,2,16,0.00
2013-3-11,60.0,51.2,43.0,41.0,35.5,31.0,75,56,36,30.30,30.16,7,0,10,0.00
2013-3-12,65.0,56.5,50.0,46.0,42.2,36.0,77,60,38,30.16,30.02,21,7,23,0.00
2013-3-13,69.0,58.8,51.0,44.0,41.0,39.0,68,53,34,30.14,30.05,17,4,17,0.00
2013-3-14,69.0,57.2,47.0,47.0,42.2,29.0,82,59,31,30.07,29.95,11,1,17,0.00
2013-3-15,67.0,56.7,50.0,45.0,41.8,38.0,77,59,35,30.14,30.05,18,5,21,0.00
2013-3-16,59.0,51.4,40.0,42.0,37.6,26.0,74,60,38,30.05,29.78,23,7,27,0.00
2013-3-17,53.0,43.9,37.0,32.0,27.2,21.0,73,54,30,30.09,29.88,23,11,30,0.00
2013-3-18,57.0,45.1,36.0,32.0,26.7,21.0,74,51,26,30.18,30.02,26,7,30,0.00
2013-3-19,58.0,41.7,25.0,33.0,23.7,20.0,83,52,28,30.20,29.74,5,1,10,0.00
2013-3-20,62.0,46.5,39.0,46.0,36.3,25.0,95,71,25,29.91,29.51,26,6,36,0.13
2013-3-21,54.0,44.3,37.0,31.0,27.4,20.0,71,53,31,30.09,29.91,21,10,26,0.01
2013-3-22,57.0,42.4,32.0,29.0,23.2,15.0,72,49,23,30.28,30.07,15,4,17,0.00
2013-3-23,55.0,37.8,25.0,28.0,20.9,18.0,80,55,26,30.35,30.23,5,1,11,0.00
2013-3-24,30.0,27.5,26.0,20.0,19.1,17.0,72,70,66,30.28,30.26,3,1,5,0.00
2013-9-30,60.0,57.0,54.0,42.0,41.3,41.0,62,56,49,29.88,29.85,17,8,19,0.02
2013-10-1,56.0,51.4,48.0,43.0,39.9,39.0,72,65,58,30.10,30.01,12,8,27,0.00
2013-10-2,62.0,50.8,43.0,43.0,40.3,37.0,82,68,47,30.12,29.99,8,1,12,0.00
2013-10-3,70.0,52.2,43.0,43.0,39.5,36.0,88,65,30,30.33,30.04,5,0,10,0.00
2013-10-4,68.0,47.7,36.0,43.0,37.2,33.0,90,70,33,30.47,30.34,5,1,8,0.00
2013-10-5,73.0,49.8,35.0,45.0,38.4,32.0,91,69,33,30.36,30.18,3,0,7,0.00
2013-10-6,71.0,53.0,38.0,46.0,39.6,35.0,91,64,31,30.18,29.89,3,0,6,0.00
2013-10-7,70.0,59.1,50.0,48.0,41.4,38.0,81,53,34,29.95,29.85,20,6,33,0.00
2013-10-8,59.0,51.4,41.0,45.0,43.0,39.0,94,74,55,29.96,29.84,25,8,28,0.14
2013-10-9,64.0,49.0,39.0,47.0,41.6,38.0,96,79,48,30.07,29.91,7,0,9,0.35
2013-10-10,57.0,52.3,50.0,41.0,40.5,40.0,71,64,54,29.95,29.92,4,0,11,0.00
2013-10-11,68.0,56.2,48.0,47.0,41.6,37.0,87,61,35,30.08,29.95,7,1,12,0.00
2013-10-12,60.0,51.6,47.0,49.0,42.8,-99.9,86,75,60,30.11,29.97,8,1,14,0.00
2013-10-13,68.0,51.9,44.0,46.0,39.9,30.0,89,68,28,30.24,30.11,7,1,8,0.00
2013-10-14,66.0,47.2,39.0,42.0,37.7,35.0,88,72,34,30.35,30.25,4,1,7,0.00
2013-10-15,67.0,45.3,33.0,41.0,34.7,30.0,90,70,30,30.37,30.11,6,1,7,0.00
2013-10-16,70.0,48.3,38.0,41.0,37.2,34.0,89,69,27,30.15,30.08,7,1,8,0.00
2013-10-17,71.0,45.3,37.0,41.0,36.6,34.0,89,76,31,30.24,30.12,3,0,5,0.00
2013-10-18,69.0,52.9,43.0,43.0,40.6,37.0,80,65,36,30.26,30.12,6,2,8,0.00
2013-10-19,67.0,46.0,34.0,45.0,36.2,-99.9,92,74,38,30.14,30.04,6,1,8,0.00
2013-10-20,72.0,50.9,37.0,49.0,41.4,35.0,93,73,37,30.14,30.03,4,0,7,0.00
2013-10-21,73.0,51.3,39.0,49.0,42.5,36.0,91,74,38,30.17,30.07,7,0,7,0.00
2013-10-22,71.0,50.3,40.0,48.0,42.8,38.0,94,78,42,30.14,30.02,5,0,7,0.00
2013-10-23,70.0,49.4,39.0,49.0,42.7,37.0,94,80,45,30.10,30.00,5,1,10,0.00
2013-10-24,68.0,49.8,40.0,49.0,43.4,38.0,94,80,49,30.10,30.01,5,0,8,0.00
2013-10-25,68.0,49.3,37.0,49.0,43.1,35.0,95,81,49,30.21,30.14,5,0,7,0.00
2013-10-26,66.0,46.2,37.0,48.0,39.7,-99.9,96,82,47,30.26,30.02,6,0,10,0.00
2013-10-27,55.0,50.3,43.0,49.0,45.1,36.0,91,82,56,30.02,29.73,20,3,27,0.01
2013-10-28,57.0,47.9,43.0,36.0,25.8,-99.9,62,45,27,29.88,29.79,24,9,32,0.01
2013-10-29,58.0,39.3,31.0,28.0,23.4,21.0,73,55,27,30.01,29.88,3,0,11,0.00
2013-10-30,61.0,40.1,28.0,36.0,29.8,25.0,90,70,32,30.03,29.96,4,0,12,0.00
2013-10-31,73.0,56.7,43.0,48.0,40.5,32.0,74,56,35,30.14,30.00,16,4,18,0.00
2013-11-1,70.0,56.9,49.0,46.0,40.8,37.0,76,57,32,30.22,29.92,10,2,18,0.00
2013-11-2,62.0,50.9,44.0,48.0,38.1,-99.9,90,65,42,29.88,29.60,27,10,44,0.06
2013-11-9,53.0,44.3,38.0,42.0,36.4,-99.9,93,77,62,30.14,30.07,5,0,10,0.00
2013-11-10,58.0,48.2,44.0,43.0,41.0,40.0,87,77,55,30.20,30.08,1,0,7,0.00
2013-11-11,58.0,44.6,40.0,43.0,39.8,36.0,93,83,57,30.30,30.19,1,0,7,0.00
2013-11-12,43.0,41.4,40.0,41.0,39.2,38.0,93,92,89,30.31,30.19,0,0,1,0.00
2013-11-13,64.0,44.5,35.0,46.0,39.3,34.0,97,84,46,30.35,30.22,8,1,11,0.01
2013-11-14,50.0,40.8,36.0,42.0,37.2,34.0,93,87,71,30.20,29.92,6,1,11,0.01
2013-11-15,51.0,45.8,41.0,38.0,36.3,34.0,83,70,54,29.93,29.34,26,11,31,0.01
2013-11-16,60.0,48.6,44.0,39.0,29.8,-99.9,74,52,26,29.70,29.24,19,9,37,0.01
2013-11-17,59.0,50.9,45.0,40.0,38.2,36.0,81,63,45,29.88,29.70,27,10,31,0.00
2013-11-18,58.0,52.9,49.0,47.0,39.7,36.0,84,62,48,29.88,29.64,19,5,22,0.05
2013-11-19,61.0,53.2,44.0,48.0,40.1,28.0,74,61,48,29.82,29.59,21,6,28,0.02
2013-11-20,46.0,35.7,21.0,28.0,12.3,4.0,57,40,19,30.41,29.85,13,2,18,0.00
2013-11-21,41.0,23.4,15.0,15.0,11.5,7.0,77,61,32,30.65,30.42,8,1,8,0.00
2013-11-22,42.0,23.0,15.0,19.0,14.2,10.0,82,70,37,30.73,30.59,5,1,7,0.00
2013-11-23,41.0,24.1,16.0,21.0,14.0,-99.9,82,70,40,30.59,30.33,5,2,6,0.00
2013-11-30,38.0,32.4,29.0,32.0,28.1,-99.9,95,88,79,30.30,30.14,3,0,5,0.00
2013-12-1,63.0,50.9,34.0,50.0,42.7,31.0,97,75,56,30.14,29.70,26,7,39,0.06
2013-12-2,55.0,45.4,36.0,43.0,27.9,19.0,77,51,30,29.95,29.65,18,7,30,0.01
2013-12-3,38.0,31.0,22.0,27.0,14.7,9.0,90,52,32,30.22,29.96,21,7,26,0.00
2013-12-4,34.0,19.3,12.0,13.0,8.8,5.0,76,64,33,30.31,30.22,6,1,7,0.00
2013-12-5,28.0,15.6,9.0,15.0,8.7,4.0,84,74,57,30.30,30.21,5,1,7,0.00
2013-12-6,27.0,19.6,12.0,12.0,7.8,3.0,78,61,39,30.24,30.08,12,3,19,0.00
2013-12-8,23.0,13.7,9.0,2.0,-0.5,-6.0,66,53,34,30.50,30.34,5,2,7,0.00
2013-12-9,29.0,15.5,9.0,7.0,4.7,1.0,73,63,38,30.49,30.31,6,1,7,0.00
2013-12-10,33.0,19.4,13.0,11.0,8.6,5.0,74,63,36,30.41,30.32,5,0,6,0.00
2013-12-11,35.0,20.2,11.0,15.0,10.4,5.0,76,66,40,30.41,30.28,5,1,5,0.00
2013-12-12,34.0,26.5,16.0,24.0,17.6,11.0,80,69,56,30.27,30.09,5,0,7,0.00
2013-12-13,43.0,28.0,22.0,24.0,20.7,18.0,85,75,45,30.37,30.13,6,0,6,0.00
2013-12-14,39.0,31.5,24.0,29.0,23.4,-99.9,83,76,63,30.39,30.22,7,1,15,0.00
2013-12-15,60.0,40.9,27.0,42.0,32.9,23.0,88,74,51,30.27,30.15,17,4,25,0.00
2013-12-16,59.0,43.4,30.0,39.0,35.7,27.0,92,75,45,30.35,30.26,13,3,18,0.00
2013-12-17,43.0,31.0,26.0,34.0,28.4,24.0,94,90,67,30.25,29.95,3,0,6,0.00
2013-12-18,51.0,37.3,29.0,38.0,30.6,16.0,95,78,41,30.03,29.84,8,1,14,0.00
2013-12-19,44.0,32.6,23.0,14.0,10.5,7.0,57,40,22,30.23,30.04,8,2,18,0.00
2013-12-20,42.0,34.5,27.0,36.0,25.0,13.0,92,70,42,30.07,29.56,19,7,32,0.09
2013-12-23,61.0,41.9,32.0,45.0,32.9,27.0,96,73,43,30.37,30.02,19,4,32,0.01
2013-12-24,53.0,39.7,26.0,32.0,27.2,22.0,87,63,38,30.50,30.39,13,3,16,0.01
2013-12-25,39.0,27.9,20.0,28.0,23.2,17.0,93,83,61,30.48,30.37,6,0,7,0.00
2013-12-26,38.0,26.4,20.0,29.0,22.9,17.0,91,86,69,30.38,30.26,6,1,8,0.00
2013-12-27,31.0,25.7,19.0,30.0,24.2,16.0,96,94,89,30.27,30.08,3,0,6,0.00
2013-12-28,27.0,25.0,23.0,26.0,22.6,-99.9,95,93,93,30.46,30.22,7,0,7,0.00
2013-12-29,31.0,27.5,23.0,30.0,26.3,21.0,97,95,93,30.45,30.22,0,0,0,0.00
2013-12-30,34.0,30.6,28.0,32.0,28.8,25.0,96,93,74,30.35,30.09,2,0,6,0.01
2013-12-31,42.0,34.0,27.0,36.0,31.1,25.0,95,89,76,30.30,30.07,6,0,10,0.02
2014-1-1,31.0,28.8,24.0,30.0,27.6,22.0,96,95,92,30.41,30.30,6,0,6,0.02
2014-1-2,39.0,33.5,30.0,35.0,31.2,29.0,97,92,80,30.32,29.80,1,0,8,0.01